createdAt,value
2022-07-25T00:01:12.208Z,116.70
2022-07-25T00:03:39.889Z,116.70
2022-07-25T00:06:07.761Z,114.80
2022-07-25T00:08:41.177Z,116.00
2022-07-25T00:11:08.262Z,115.37
2022-07-25T00:13:35.449Z,116.67
2022-07-25T00:16:03.000Z,116.37
2022-07-25T00:18:30.592Z,116.37
2022-07-25T00:20:58.960Z,115.40
2022-07-25T00:23:26.504Z,116.87
2022-07-25T00:25:53.526Z,116.23
2022-07-25T00:28:21.249Z,115.17
2022-07-25T00:30:48.945Z,116.67
2022-07-25T00:33:16.601Z,116.37
2022-07-25T00:35:44.258Z,116.03
2022-07-25T00:38:11.882Z,115.20
2022-07-25T00:40:39.620Z,114.67
2022-07-25T00:43:07.333Z,115.80
2022-07-25T00:45:34.935Z,115.97
2022-07-25T00:48:02.509Z,116.17
2022-07-25T00:50:30.654Z,115.67
2022-07-25T00:52:58.348Z,115.07
2022-07-25T00:55:26.866Z,116.47
2022-07-25T00:57:53.957Z,115.87
2022-07-25T01:00:21.458Z,116.57
2022-07-25T01:02:48.816Z,116.27
2022-07-25T01:05:17.966Z,116.43
2022-07-25T01:07:45.896Z,116.50
2022-07-25T01:10:13.390Z,116.77
2022-07-25T01:12:55.184Z,116.90
2022-07-25T01:15:24.931Z,116.87
2022-07-25T01:17:52.161Z,116.70
2022-07-25T01:20:28.128Z,116.60
2022-07-25T01:22:56.627Z,117.00
2022-07-25T01:25:25.442Z,117.23
2022-07-25T01:27:55.824Z,117.00
2022-07-25T01:30:25.156Z,117.27
2022-07-25T01:32:52.778Z,117.57
2022-07-25T01:35:20.497Z,117.40
2022-07-25T01:37:48.071Z,117.97
2022-07-25T01:40:15.713Z,117.37
2022-07-25T01:42:44.225Z,117.50
2022-07-25T01:45:13.117Z,117.20
2022-07-25T01:47:41.142Z,118.37
2022-07-25T01:50:09.966Z,117.50
2022-07-25T01:52:40.655Z,117.70
2022-07-25T01:55:09.275Z,118.00
2022-07-25T01:57:37.618Z,117.80
2022-07-25T02:00:13.094Z,118.20
2022-07-25T02:02:42.610Z,118.47
2022-07-25T02:05:12.657Z,117.10
2022-07-25T02:07:40.250Z,116.20
2022-07-25T02:10:08.631Z,119.57
2022-07-25T02:12:35.823Z,120.00
2022-07-25T02:15:03.486Z,118.30
2022-07-25T02:17:31.139Z,119.17
2022-07-25T02:19:58.750Z,119.57
2022-07-25T02:22:25.810Z,119.27
2022-07-25T02:24:53.227Z,118.93
2022-07-25T02:27:20.700Z,118.27
2022-07-25T02:29:48.187Z,117.80
2022-07-25T02:32:15.744Z,117.80
2022-07-25T02:34:43.215Z,118.43
2022-07-25T02:37:10.968Z,116.80
2022-07-25T02:39:38.151Z,116.83
2022-07-25T02:42:05.726Z,117.20
2022-07-25T02:44:33.140Z,117.20
2022-07-25T02:47:00.832Z,116.90
2022-07-25T02:49:28.423Z,117.63
2022-07-25T02:51:57.494Z,117.57
2022-07-25T02:54:25.030Z,117.67
2022-07-25T02:56:52.525Z,120.77
2022-07-25T02:59:20.035Z,117.27
2022-07-25T03:01:47.609Z,118.67
2022-07-25T03:04:16.298Z,118.00
2022-07-25T03:06:44.674Z,119.03
2022-07-25T03:09:11.759Z,118.60
2022-07-25T03:11:39.401Z,118.87
2022-07-25T03:14:09.247Z,120.40
2022-07-25T03:16:37.193Z,119.60
2022-07-25T03:19:04.303Z,119.80
2022-07-25T03:21:31.312Z,121.43
2022-07-25T03:23:58.775Z,118.73
2022-07-25T03:26:25.804Z,118.77
2022-07-25T03:28:53.223Z,116.47
2022-07-25T03:31:20.316Z,120.17
2022-07-25T03:33:47.885Z,117.50
2022-07-25T03:36:15.332Z,119.70
2022-07-25T03:38:42.808Z,117.50
2022-07-25T03:41:10.485Z,116.97
2022-07-25T03:43:38.145Z,117.03
2022-07-25T03:46:05.702Z,117.27
2022-07-25T03:48:33.285Z,117.53
2022-07-25T03:51:04.879Z,117.57
2022-07-25T03:53:54.632Z,117.50
2022-07-25T03:56:22.304Z,117.53
2022-07-25T03:58:49.272Z,117.97
2022-07-25T04:01:16.883Z,117.50
2022-07-25T04:03:46.891Z,117.57
2022-07-25T04:06:14.419Z,117.47
2022-07-25T04:08:41.918Z,117.50
2022-07-25T04:11:09.360Z,118.37
2022-07-25T04:13:37.226Z,117.70
2022-07-25T04:16:05.163Z,122.10
2022-07-25T04:18:34.293Z,117.17
2022-07-25T04:21:03.416Z,117.93
2022-07-25T04:23:31.404Z,118.13
2022-07-25T04:25:59.353Z,117.97
2022-07-25T04:28:26.948Z,117.37
2022-07-25T04:30:54.816Z,117.97
2022-07-25T04:33:22.705Z,117.07
2022-07-25T04:35:49.914Z,117.77
2022-07-25T04:38:17.540Z,116.90
2022-07-25T04:40:45.541Z,116.77
2022-07-25T04:43:13.453Z,117.27
2022-07-25T04:45:40.979Z,117.37
2022-07-25T04:48:09.313Z,117.00
2022-07-25T04:50:36.361Z,116.20
2022-07-25T04:53:04.920Z,116.30
2022-07-25T04:55:32.918Z,116.60
2022-07-25T04:58:03.490Z,115.97
2022-07-25T05:00:31.666Z,115.53
2022-07-25T05:02:59.394Z,114.57
2022-07-25T05:05:27.125Z,115.27
2022-07-25T05:08:00.809Z,114.93
2022-07-25T05:10:29.697Z,115.37
2022-07-25T05:12:57.603Z,116.20
2022-07-25T05:15:25.319Z,114.67
2022-07-25T05:17:53.015Z,115.03
2022-07-25T05:20:20.744Z,114.90
2022-07-25T05:22:48.381Z,116.43
2022-07-25T05:25:15.865Z,118.37
2022-07-25T05:27:43.018Z,118.80
2022-07-25T05:30:13.055Z,118.20
2022-07-25T05:32:41.514Z,119.33
2022-07-25T05:35:10.034Z,119.37
2022-07-25T05:37:38.013Z,120.47
2022-07-25T05:40:07.256Z,118.33
2022-07-25T05:42:35.186Z,116.53
2022-07-25T05:45:03.589Z,114.37
2022-07-25T05:47:31.074Z,112.10
2022-07-25T05:49:59.097Z,112.27
2022-07-25T05:52:26.565Z,111.33
2022-07-25T05:54:53.587Z,112.87
2022-07-25T05:57:21.186Z,112.67
2022-07-25T05:59:48.717Z,112.77
2022-07-25T06:02:16.370Z,112.57
2022-07-25T06:04:47.096Z,112.77
2022-07-25T06:07:17.064Z,112.00
2022-07-25T06:09:44.790Z,111.80
2022-07-25T06:12:13.918Z,112.30
2022-07-25T06:14:41.708Z,111.97
2022-07-25T06:17:10.342Z,112.50
2022-07-25T06:19:37.891Z,112.57
2022-07-25T06:22:05.379Z,112.90
2022-07-25T06:24:32.399Z,112.90
2022-07-25T06:26:59.900Z,112.80
2022-07-25T06:29:27.866Z,112.77
2022-07-25T06:31:55.372Z,112.70
2022-07-25T06:34:25.781Z,112.00
2022-07-25T06:36:57.441Z,112.80
2022-07-25T06:39:26.136Z,111.60
2022-07-25T06:41:54.790Z,111.37
2022-07-25T06:44:22.322Z,111.70
2022-07-25T06:46:49.480Z,111.00
2022-07-25T06:49:17.991Z,111.57
2022-07-25T06:51:45.424Z,111.23
2022-07-25T06:54:15.415Z,111.37
2022-07-25T06:56:43.011Z,111.23
2022-07-25T06:59:10.490Z,111.20
2022-07-25T07:01:38.055Z,111.27
2022-07-25T07:04:06.302Z,110.47
2022-07-25T07:06:33.640Z,110.87
2022-07-25T07:09:01.107Z,110.97
2022-07-25T07:11:28.833Z,110.70
2022-07-25T07:13:55.866Z,110.87
2022-07-25T07:16:23.376Z,111.00
2022-07-25T07:18:50.920Z,111.07
2022-07-25T07:21:21.455Z,111.40
2022-07-25T07:23:49.279Z,111.77
2022-07-25T07:26:21.465Z,111.67
2022-07-25T07:28:49.044Z,111.37
2022-07-25T07:31:18.302Z,112.60
2022-07-25T07:33:46.241Z,112.57
2022-07-25T07:36:13.781Z,112.37
2022-07-25T07:38:41.472Z,113.37
2022-07-25T07:41:10.050Z,114.17
2022-07-25T07:43:37.651Z,115.20
2022-07-25T07:46:04.962Z,114.47
2022-07-25T07:48:33.621Z,112.47
2022-07-25T07:51:02.533Z,111.20
2022-07-25T07:53:49.565Z,109.47
2022-07-25T07:56:19.079Z,107.67
2022-07-25T07:58:47.265Z,106.97
2022-07-25T08:03:52.653Z,106.07
2022-07-25T08:06:20.224Z,105.37
2022-07-25T08:08:47.901Z,105.73
2022-07-25T08:11:15.033Z,105.70
2022-07-25T08:13:42.532Z,106.37
2022-07-25T08:16:11.775Z,108.57
2022-07-25T08:18:39.717Z,111.20
2022-07-25T08:21:07.335Z,116.20
2022-07-25T08:23:35.674Z,115.37
2022-07-25T08:26:03.897Z,112.00
2022-07-25T08:28:31.673Z,112.00
2022-07-25T08:30:59.582Z,109.03
2022-07-25T08:33:27.083Z,105.10
2022-07-25T08:35:56.096Z,103.73
2022-07-25T08:38:25.931Z,102.00
2022-07-25T08:40:55.455Z,100.33
2022-07-25T08:43:23.669Z,100.30
2022-07-25T08:45:56.386Z,100.50
2022-07-25T08:48:26.717Z,100.40
2022-07-25T08:50:58.492Z,100.33
2022-07-25T08:53:35.107Z,99.73
2022-07-25T08:56:14.624Z,99.90
2022-07-25T08:58:45.289Z,98.80
2022-07-25T09:01:15.064Z,100.27
2022-07-25T09:03:43.863Z,98.70
2022-07-25T09:06:22.926Z,99.67
2022-07-25T09:09:00.285Z,100.20
2022-07-25T09:11:38.018Z,99.40
2022-07-25T09:14:13.115Z,99.47
2022-07-25T09:16:45.514Z,98.90
2022-07-25T09:19:18.329Z,97.70
2022-07-25T09:22:01.904Z,97.67
2022-07-25T09:24:29.991Z,97.77
2022-07-25T09:27:00.994Z,98.37
2022-07-25T09:29:33.087Z,97.70
2022-07-25T09:32:17.169Z,96.37
2022-07-25T09:34:48.089Z,96.53
2022-07-25T09:37:18.968Z,95.57
2022-07-25T09:39:50.397Z,95.70
2022-07-25T09:42:25.779Z,94.80
2022-07-25T09:45:00.623Z,94.87
2022-07-25T09:47:28.722Z,94.57
2022-07-25T09:49:56.735Z,94.30
2022-07-25T09:52:24.208Z,94.60
2022-07-25T09:54:51.899Z,94.77
2022-07-25T09:57:19.393Z,94.80
2022-07-25T09:59:46.521Z,94.80
2022-07-25T10:03:10.879Z,94.93
2022-07-25T10:06:03.561Z,94.93
2022-07-25T10:08:36.527Z,96.67
2022-07-25T10:11:06.544Z,97.23
2022-07-25T10:13:38.152Z,96.43
2022-07-25T10:16:24.030Z,96.43
2022-07-25T10:18:58.413Z,95.47
2022-07-25T10:21:29.741Z,95.73
2022-07-25T10:24:04.398Z,95.80
2022-07-25T10:26:35.255Z,95.13
2022-07-25T10:29:10.114Z,95.47
2022-07-25T10:31:49.999Z,94.60
2022-07-25T10:34:33.213Z,95.00
2022-07-25T10:37:17.912Z,94.50
2022-07-25T10:39:47.992Z,94.80
2022-07-25T10:42:20.804Z,94.70
2022-07-25T10:44:51.304Z,94.87
2022-07-25T10:47:23.801Z,94.40
2022-07-25T10:53:01.573Z,93.70
2022-07-25T10:55:29.693Z,92.37
2022-07-25T10:58:21.892Z,93.13
2022-07-25T11:00:51.003Z,93.80
2022-07-25T11:03:18.786Z,94.03
2022-07-25T11:05:47.815Z,94.17
2022-07-25T11:08:22.223Z,93.60
2022-07-25T11:10:53.323Z,92.67
2022-07-25T11:13:21.056Z,92.40
2022-07-25T11:15:50.636Z,92.20
2022-07-25T11:18:18.484Z,93.07
2022-07-25T11:20:45.997Z,93.57
2022-07-25T11:23:22.410Z,93.20
2022-07-25T11:25:51.277Z,92.50
2022-07-25T11:28:18.765Z,92.57
2022-07-25T11:30:46.307Z,92.77
2022-07-25T11:33:17.744Z,92.57
2022-07-25T11:35:45.875Z,92.93
2022-07-25T11:38:14.831Z,92.77
2022-07-25T11:40:46.465Z,92.37
2022-07-25T11:43:24.502Z,92.50
2022-07-25T11:46:08.104Z,92.60
2022-07-25T11:48:39.328Z,92.00
2022-07-25T11:51:19.417Z,92.57
2022-07-25T11:53:50.308Z,92.03
2022-07-25T11:59:10.035Z,92.50
2022-07-25T12:01:44.642Z,92.37
2022-07-25T12:04:19.277Z,93.30
2022-07-25T12:06:50.122Z,93.30
2022-07-25T12:09:20.772Z,94.90
2022-07-25T12:11:49.732Z,94.70
2022-07-25T12:14:17.538Z,94.20
2022-07-25T12:16:45.175Z,94.30
2022-07-25T12:19:20.935Z,94.53
2022-07-25T12:21:48.864Z,96.60
2022-07-25T12:24:15.885Z,94.97
2022-07-25T12:26:43.350Z,95.07
2022-07-25T12:29:11.017Z,94.70
2022-07-25T12:31:38.566Z,95.13
2022-07-25T12:34:06.184Z,95.47
2022-07-25T12:36:35.507Z,95.07
2022-07-25T12:39:03.065Z,94.80
2022-07-25T12:41:30.678Z,95.63
2022-07-25T12:43:58.823Z,96.90
2022-07-25T12:46:26.663Z,95.43
2022-07-25T12:48:54.159Z,96.07
2022-07-25T12:51:21.317Z,96.37
2022-07-25T12:53:48.874Z,95.67
2022-07-25T12:56:16.374Z,95.30
2022-07-25T12:58:43.399Z,94.07
2022-07-25T13:01:10.748Z,94.47
2022-07-25T13:03:38.244Z,94.37
2022-07-25T13:06:05.978Z,95.40
2022-07-25T13:08:37.836Z,99.47
2022-07-25T13:11:05.414Z,100.50
2022-07-25T13:13:32.855Z,98.47
2022-07-25T13:16:00.339Z,98.47
2022-07-25T13:18:27.907Z,97.47
2022-07-25T13:20:55.396Z,97.40
2022-07-25T13:23:22.974Z,96.20
2022-07-25T13:25:50.846Z,95.50
2022-07-25T13:28:18.328Z,95.47
2022-07-25T13:30:45.832Z,94.27
2022-07-25T13:33:14.837Z,95.67
2022-07-25T13:35:42.356Z,95.97
2022-07-25T13:38:13.851Z,96.77
2022-07-25T13:40:42.158Z,95.47
2022-07-25T13:43:12.884Z,94.57
2022-07-25T13:45:42.253Z,94.07
2022-07-25T13:48:28.921Z,93.53
2022-07-25T13:51:00.582Z,94.80
2022-07-25T13:53:31.835Z,96.10
2022-07-25T13:56:00.519Z,96.47
2022-07-25T13:58:28.283Z,95.67
2022-07-25T14:00:56.007Z,96.47
2022-07-25T14:03:23.619Z,95.80
2022-07-25T14:05:52.727Z,95.37
2022-07-25T14:08:20.241Z,94.90
2022-07-25T14:10:47.496Z,94.07
2022-07-25T14:13:15.016Z,96.07
2022-07-25T14:15:42.569Z,97.00
2022-07-25T14:18:10.074Z,98.90
2022-07-25T14:20:37.163Z,100.07
2022-07-25T14:23:04.732Z,96.57
2022-07-25T14:25:32.394Z,95.50
2022-07-25T14:28:02.288Z,95.17
2022-07-25T14:30:29.777Z,93.67
2022-07-25T14:32:57.206Z,93.27
2022-07-25T14:35:28.868Z,92.77
2022-07-25T14:37:59.490Z,92.17
2022-07-25T14:40:26.971Z,92.20
2022-07-25T14:42:54.073Z,92.50
2022-07-25T14:45:21.900Z,93.20
2022-07-25T14:47:49.574Z,94.30
2022-07-25T14:50:17.002Z,93.17
2022-07-25T14:52:44.558Z,92.97
2022-07-25T14:55:12.106Z,92.90
2022-07-25T14:57:39.553Z,94.37
2022-07-25T15:00:09.118Z,94.13
2022-07-25T15:02:36.582Z,93.87
2022-07-25T15:05:04.466Z,93.50
2022-07-25T15:07:32.137Z,93.53
2022-07-25T15:09:59.743Z,93.90
2022-07-25T15:12:27.221Z,94.30
2022-07-25T15:14:55.073Z,94.97
2022-07-25T15:17:22.530Z,94.77
2022-07-25T15:19:50.407Z,95.67
2022-07-25T15:22:19.682Z,95.90
2022-07-25T15:25:17.227Z,96.00
2022-07-25T15:27:34.737Z,95.60
2022-07-25T15:30:02.254Z,94.73
2022-07-25T15:32:29.767Z,94.10
2022-07-25T15:34:56.738Z,94.13
2022-07-25T15:37:24.242Z,93.40
2022-07-25T15:39:51.263Z,93.97
2022-07-25T15:42:18.718Z,94.40
2022-07-25T15:44:45.686Z,95.07
2022-07-25T15:47:14.546Z,96.33
2022-07-25T15:49:42.970Z,96.20
2022-07-25T15:52:10.490Z,97.00
2022-07-25T15:54:37.643Z,97.80
2022-07-25T15:57:06.968Z,102.60
2022-07-25T15:59:34.498Z,105.00
2022-07-25T16:02:02.046Z,105.03
2022-07-25T16:04:29.600Z,103.70
2022-07-25T16:06:57.479Z,101.67
2022-07-25T16:09:25.342Z,102.37
2022-07-25T16:11:52.853Z,102.40
2022-07-25T16:14:19.995Z,103.07
2022-07-25T16:16:47.449Z,102.93
2022-07-25T16:19:14.551Z,106.60
2022-07-25T16:21:42.087Z,108.63
2022-07-25T16:24:10.932Z,111.90
2022-07-25T16:26:38.620Z,111.30
2022-07-25T16:29:06.391Z,112.37
2022-07-25T16:31:33.946Z,109.57
2022-07-25T16:34:01.656Z,108.57
2022-07-25T16:36:29.538Z,107.47
2022-07-25T16:38:57.195Z,109.27
2022-07-25T16:41:25.124Z,107.80
2022-07-25T16:43:52.586Z,107.67
2022-07-25T16:46:21.476Z,107.07
2022-07-25T16:48:51.295Z,107.13
2022-07-25T16:51:18.728Z,106.70
2022-07-25T16:53:46.325Z,106.20
2022-07-25T16:56:13.827Z,106.17
2022-07-25T16:58:40.876Z,105.87
2022-07-25T17:01:08.358Z,109.10
2022-07-25T17:03:35.847Z,106.57
2022-07-25T17:06:03.317Z,107.27
2022-07-25T17:08:32.583Z,110.60
2022-07-25T17:11:00.833Z,112.60
2022-07-25T17:13:27.974Z,112.60
2022-07-25T17:15:55.231Z,110.97
2022-07-25T17:18:22.393Z,110.47
2022-07-25T17:20:49.528Z,110.87
2022-07-25T17:23:17.040Z,110.57
2022-07-25T17:25:48.618Z,110.47
2022-07-25T17:28:18.198Z,110.13
2022-07-25T17:30:45.762Z,109.50
2022-07-25T17:33:13.437Z,109.90
2022-07-25T17:35:40.577Z,108.70
2022-07-25T17:38:08.148Z,108.10
2022-07-25T17:40:38.925Z,108.00
2022-07-25T17:43:06.505Z,107.83
2022-07-25T17:45:34.213Z,107.40
2022-07-25T17:48:01.666Z,108.03
2022-07-25T17:50:29.597Z,109.17
2022-07-25T17:52:59.452Z,108.57
2022-07-25T17:55:28.616Z,109.03
2022-07-25T17:57:57.635Z,109.17
2022-07-25T18:00:25.392Z,109.17
2022-07-25T18:02:52.467Z,108.87
2022-07-25T18:05:19.995Z,109.03
2022-07-25T18:07:49.385Z,109.43
2022-07-25T18:10:18.338Z,109.97
2022-07-25T18:12:45.581Z,108.77
2022-07-25T18:15:14.849Z,108.93
2022-07-25T18:17:47.490Z,109.30
2022-07-25T18:20:16.825Z,108.07
2022-07-25T18:22:45.211Z,108.07
2022-07-25T18:25:14.177Z,108.20
2022-07-25T18:27:44.495Z,108.00
2022-07-25T18:30:14.048Z,108.10
2022-07-25T18:32:42.933Z,107.77
2022-07-25T18:35:11.225Z,108.07
2022-07-25T18:37:39.274Z,108.03
2022-07-25T18:40:08.278Z,108.60
2022-07-25T18:42:36.778Z,108.77
2022-07-25T18:45:06.003Z,109.00
2022-07-25T18:47:34.927Z,109.20
2022-07-25T18:50:04.296Z,110.40
2022-07-25T18:52:34.980Z,111.67
2022-07-25T18:55:08.711Z,112.57
2022-07-25T18:57:36.302Z,115.17
2022-07-25T19:00:06.220Z,115.57
2022-07-25T19:02:33.901Z,120.30
2022-07-25T19:05:01.973Z,115.67
2022-07-25T19:07:31.227Z,116.47
2022-07-25T19:09:58.492Z,116.60
2022-07-25T19:12:27.172Z,115.67
2022-07-25T19:14:55.236Z,117.07
2022-07-25T19:17:23.810Z,118.60
2022-07-25T19:19:52.282Z,119.73
2022-07-25T19:22:20.259Z,122.47
2022-07-25T19:24:47.327Z,124.47
2022-07-25T19:27:15.064Z,122.70
2022-07-25T19:29:44.081Z,117.00
2022-07-25T19:32:11.704Z,114.53
2022-07-25T19:34:38.715Z,114.07
2022-07-25T19:37:05.808Z,113.37
2022-07-25T19:39:33.474Z,112.90
2022-07-25T19:42:01.119Z,113.37
2022-07-25T19:44:28.624Z,112.47
2022-07-25T19:46:56.992Z,112.00
2022-07-25T19:49:24.539Z,114.90
2022-07-25T19:51:52.139Z,112.50
2022-07-25T19:54:20.039Z,112.57
2022-07-25T19:56:48.028Z,120.90
2022-07-25T19:59:15.819Z,119.93
2022-07-25T20:01:43.419Z,118.80
2022-07-25T20:04:11.377Z,117.93
2022-07-25T20:06:39.436Z,117.30
2022-07-25T20:09:07.294Z,118.47
2022-07-25T20:11:39.023Z,118.97
2022-07-25T20:14:07.144Z,119.67
2022-07-25T20:16:37.621Z,117.83
2022-07-25T20:19:09.459Z,117.67
2022-07-25T20:21:38.992Z,117.33
2022-07-25T20:24:07.108Z,118.17
2022-07-25T20:26:34.825Z,116.37
2022-07-25T20:29:02.377Z,117.37
2022-07-25T20:31:30.054Z,116.87
2022-07-25T20:33:57.749Z,121.20
2022-07-25T20:36:25.226Z,117.90
2022-07-25T20:38:52.588Z,118.87
2022-07-25T20:41:20.153Z,118.30
2022-07-25T20:43:47.700Z,121.27
2022-07-25T20:46:15.345Z,120.57
2022-07-25T20:48:42.902Z,122.57
2022-07-25T20:51:13.164Z,119.67
2022-07-25T20:53:41.799Z,120.60
2022-07-25T20:56:09.801Z,120.37
2022-07-25T20:58:36.857Z,119.70
2022-07-25T21:01:04.448Z,119.50
2022-07-25T21:03:31.701Z,118.70
2022-07-25T21:06:01.248Z,118.07
2022-07-25T21:08:28.767Z,118.37
2022-07-25T21:10:57.077Z,118.10
2022-07-25T21:13:24.963Z,117.60
2022-07-25T21:15:58.277Z,116.33
2022-07-25T21:18:25.287Z,119.00
2022-07-25T21:20:53.191Z,117.87
2022-07-25T21:23:20.888Z,120.20
2022-07-25T21:25:48.754Z,118.80
2022-07-25T21:28:16.250Z,119.20
2022-07-25T21:30:43.780Z,118.70
2022-07-25T21:33:14.822Z,118.57
2022-07-25T21:35:49.337Z,117.53
2022-07-25T21:38:27.399Z,118.70
2022-07-25T21:40:57.263Z,119.33
2022-07-25T21:43:24.750Z,119.20
2022-07-25T21:45:52.269Z,118.90
2022-07-25T21:48:39.852Z,118.80
2022-07-25T21:51:18.755Z,118.60
2022-07-25T21:53:51.713Z,120.20
2022-07-25T21:56:19.693Z,119.50
2022-07-25T21:58:47.290Z,118.00
2022-07-25T22:01:14.982Z,119.10
2022-07-25T22:03:42.509Z,119.90
2022-07-25T22:06:10.198Z,118.83
2022-07-25T22:08:37.542Z,119.70
2022-07-25T22:11:15.981Z,120.40
2022-07-25T22:13:48.482Z,119.10
2022-07-25T22:16:16.395Z,118.57
2022-07-25T22:18:43.995Z,117.90
2022-07-25T22:21:11.550Z,116.10
2022-07-25T22:23:42.839Z,118.57
2022-07-25T22:26:09.877Z,118.03
2022-07-25T22:28:37.408Z,118.77
2022-07-25T22:31:05.255Z,117.60
2022-07-25T22:33:34.411Z,118.37
2022-07-25T22:36:01.783Z,117.17
2022-07-25T22:38:29.240Z,118.67
2022-07-25T22:40:57.044Z,118.97
2022-07-25T22:43:24.127Z,116.17
2022-07-25T22:46:11.714Z,117.50
2022-07-25T22:48:39.328Z,117.00
2022-07-25T22:51:06.826Z,118.17
2022-07-25T22:53:34.304Z,117.07
2022-07-25T22:56:01.908Z,119.70
2022-07-25T22:58:29.399Z,115.93
2022-07-25T23:00:56.940Z,116.33
2022-07-25T23:03:24.547Z,117.77
2022-07-25T23:06:00.539Z,117.47
2022-07-25T23:08:28.480Z,118.00
2022-07-25T23:10:57.088Z,116.30
2022-07-25T23:13:24.588Z,116.80
2022-07-25T23:15:52.051Z,117.50
2022-07-25T23:18:19.895Z,116.30
2022-07-25T23:20:47.532Z,114.67
2022-07-25T23:23:15.096Z,116.47
2022-07-25T23:25:42.623Z,116.37
2022-07-25T23:28:09.612Z,115.00
2022-07-25T23:30:40.221Z,117.27
2022-07-25T23:33:08.618Z,117.77
2022-07-25T23:35:36.002Z,117.37
2022-07-25T23:38:04.346Z,115.80
2022-07-25T23:40:31.529Z,116.57
2022-07-25T23:42:59.185Z,116.07
2022-07-25T23:45:28.040Z,116.53
2022-07-25T23:47:57.452Z,116.87
2022-07-25T23:50:25.455Z,116.53
2022-07-25T23:52:53.377Z,115.87
2022-07-25T23:55:20.859Z,114.70
2022-07-25T23:57:48.377Z,115.07
